createdAt,value
2019-01-24T00:00:24.071Z,82.50
2019-01-24T00:02:52.855Z,82.30
2019-01-24T00:05:21.605Z,82.20
2019-01-24T00:07:50.270Z,82.40
2019-01-24T00:10:18.685Z,82.40
2019-01-24T00:12:47.113Z,81.90
2019-01-24T00:15:15.743Z,81.80
2019-01-24T00:17:44.392Z,81.60
2019-01-24T00:20:16.043Z,81.70
2019-01-24T00:22:44.755Z,81.70
2019-01-24T00:25:13.350Z,81.70
2019-01-24T00:27:41.774Z,81.90
2019-01-24T00:30:12.899Z,82.40
2019-01-24T00:32:41.657Z,82.80
2019-01-24T00:35:10.564Z,82.50
2019-01-24T00:37:39.107Z,82.40
2019-01-24T00:40:10.606Z,81.50
2019-01-24T00:42:39.034Z,81.00
2019-01-24T00:45:08.889Z,80.90
2019-01-24T00:47:37.406Z,80.90
2019-01-24T00:50:09.057Z,80.90
2019-01-24T00:52:37.483Z,80.80
2019-01-24T00:55:11.553Z,80.90
2019-01-24T00:57:40.007Z,81.30
2019-01-24T01:00:11.634Z,81.30
2019-01-24T01:02:40.050Z,81.50
2019-01-24T01:05:11.085Z,81.60
2019-01-24T01:07:39.497Z,81.50
2019-01-24T01:10:09.877Z,81.20
2019-01-24T01:12:38.518Z,81.30
2019-01-24T01:15:10.790Z,81.20
2019-01-24T01:17:39.449Z,80.90
2019-01-24T01:20:11.038Z,81.20
2019-01-24T01:22:39.459Z,81.00
2019-01-24T01:25:10.050Z,81.10
2019-01-24T01:27:38.493Z,81.00
2019-01-24T01:30:09.981Z,80.90
2019-01-24T01:32:38.406Z,80.90
2019-01-24T01:35:07.483Z,80.40
2019-01-24T01:37:35.962Z,80.20
2019-01-24T01:40:07.898Z,79.50
2019-01-24T01:42:36.317Z,79.00
2019-01-24T01:45:07.856Z,79.70
2019-01-24T01:47:36.288Z,79.10
2019-01-24T01:50:07.777Z,78.70
2019-01-24T01:52:36.197Z,79.00
2019-01-24T01:55:05.874Z,79.80
2019-01-24T01:57:34.290Z,79.10
2019-01-24T02:00:02.786Z,79.80
2019-01-24T02:02:31.465Z,79.60
2019-01-24T02:05:00.240Z,80.00
2019-01-24T02:07:28.629Z,80.00
2019-01-24T02:09:57.337Z,79.90
2019-01-24T02:12:25.862Z,79.60
2019-01-24T02:14:54.278Z,80.10
2019-01-24T02:17:22.701Z,80.30
2019-01-24T02:19:51.371Z,80.40
2019-01-24T02:22:19.789Z,80.60
2019-01-24T02:24:48.216Z,80.60
2019-01-24T02:27:16.726Z,80.10
2019-01-24T02:29:45.539Z,79.60
2019-01-24T02:32:13.961Z,79.50
2019-01-24T02:34:42.387Z,80.00
2019-01-24T02:37:11.070Z,80.00
2019-01-24T02:39:39.486Z,79.70
2019-01-24T02:42:07.904Z,80.00
2019-01-24T02:44:36.547Z,80.40
2019-01-24T02:47:05.153Z,80.50
2019-01-24T02:49:33.565Z,80.70
2019-01-24T02:52:01.990Z,81.00
2019-01-24T02:54:30.401Z,80.80
2019-01-24T02:56:58.826Z,80.20
2019-01-24T02:59:27.468Z,79.60
2019-01-24T03:01:55.929Z,79.80
2019-01-24T03:04:24.587Z,79.60
2019-01-24T03:06:53.009Z,79.50
2019-01-24T03:09:21.420Z,79.50
2019-01-24T03:11:49.846Z,79.80
2019-01-24T03:14:18.520Z,80.00
2019-01-24T03:16:46.937Z,80.00
2019-01-24T03:19:15.366Z,79.50
2019-01-24T03:21:43.778Z,80.00
2019-01-24T03:24:12.206Z,79.90
2019-01-24T03:26:40.621Z,80.30
2019-01-24T03:29:09.049Z,79.60
2019-01-24T03:31:37.462Z,79.20
2019-01-24T03:34:05.960Z,79.20
2019-01-24T03:36:34.374Z,79.20
2019-01-24T03:39:03.229Z,79.20
2019-01-24T03:41:31.905Z,79.40
2019-01-24T03:44:00.380Z,79.60
2019-01-24T03:46:29.030Z,79.80
2019-01-24T03:48:57.462Z,80.40
2019-01-24T03:51:26.126Z,80.40
2019-01-24T03:53:54.556Z,80.40
2019-01-24T03:56:23.234Z,80.80
2019-01-24T03:58:51.658Z,80.90
2019-01-24T04:01:20.078Z,80.40
2019-01-24T04:03:48.507Z,80.80
2019-01-24T04:06:16.921Z,80.70
2019-01-24T04:08:45.570Z,80.40
2019-01-24T04:11:14.244Z,80.70
2019-01-24T04:13:42.713Z,80.90
2019-01-24T04:16:11.350Z,80.70
2019-01-24T04:18:40.021Z,80.80
2019-01-24T04:21:08.486Z,80.70
2019-01-24T04:23:37.130Z,80.00
2019-01-24T04:26:05.591Z,80.20
2019-01-24T04:28:34.279Z,80.30
2019-01-24T04:31:02.689Z,79.30
2019-01-24T04:33:31.121Z,80.00
2019-01-24T04:35:59.759Z,80.50
2019-01-24T04:38:28.222Z,80.00
2019-01-24T04:40:56.861Z,79.60
2019-01-24T04:43:25.581Z,79.70
2019-01-24T04:45:53.997Z,80.00
2019-01-24T04:48:22.415Z,80.10
2019-01-24T04:50:51.154Z,81.40
2019-01-24T04:53:19.610Z,80.80
2019-01-24T04:55:48.037Z,80.80
2019-01-24T04:58:16.698Z,80.60
2019-01-24T05:00:45.174Z,81.10
2019-01-24T05:03:13.596Z,81.50
2019-01-24T05:05:42.029Z,81.70
2019-01-24T05:08:10.441Z,82.20
2019-01-24T05:10:38.870Z,82.50
2019-01-24T05:13:07.573Z,82.20
2019-01-24T05:15:36.273Z,82.50
2019-01-24T05:18:04.901Z,83.10
2019-01-24T05:20:33.645Z,83.60
2019-01-24T05:23:02.354Z,83.30
2019-01-24T05:25:30.777Z,83.50
2019-01-24T05:27:59.500Z,84.20
2019-01-24T05:30:28.466Z,84.60
2019-01-24T05:32:56.913Z,84.40
2019-01-24T05:35:25.574Z,84.10
2019-01-24T05:37:54.096Z,85.00
2019-01-24T05:40:22.585Z,85.20
2019-01-24T05:42:51.006Z,85.40
2019-01-24T05:45:19.710Z,85.00
2019-01-24T05:47:48.175Z,85.50
2019-01-24T05:50:16.601Z,84.90
2019-01-24T05:52:45.266Z,85.30
2019-01-24T05:55:14.539Z,85.60
2019-01-24T05:57:43.102Z,85.60
2019-01-24T06:00:16.249Z,85.60
2019-01-24T06:02:44.913Z,85.40
2019-01-24T06:05:14.309Z,86.10
2019-01-24T06:07:42.726Z,85.60
2019-01-24T06:10:15.707Z,85.60
2019-01-24T06:12:44.475Z,85.70
2019-01-24T06:15:17.644Z,85.40
2019-01-24T06:17:46.345Z,85.90
2019-01-24T06:20:14.977Z,85.80
2019-01-24T06:22:43.399Z,85.30
2019-01-24T06:25:14.359Z,85.00
2019-01-24T06:27:43.235Z,85.00
2019-01-24T06:30:15.362Z,85.00
2019-01-24T06:32:43.860Z,85.00
2019-01-24T06:35:12.418Z,85.10
2019-01-24T06:37:40.854Z,85.50
2019-01-24T06:40:11.805Z,85.70
2019-01-24T06:42:40.544Z,85.60
2019-01-24T06:45:14.617Z,86.00
2019-01-24T06:47:43.047Z,86.90
2019-01-24T06:50:13.499Z,87.30
2019-01-24T06:52:41.932Z,87.30
2019-01-24T06:55:16.326Z,87.20
2019-01-24T06:57:44.750Z,87.40
2019-01-24T07:00:16.186Z,87.70
2019-01-24T07:02:44.987Z,87.80
2019-01-24T07:05:13.582Z,88.10
2019-01-24T07:07:42.015Z,88.40
2019-01-24T07:10:15.816Z,88.80
2019-01-24T07:12:44.384Z,88.80
2019-01-24T07:15:15.602Z,88.40
2019-01-24T07:17:44.104Z,88.10
2019-01-24T07:20:14.758Z,88.30
2019-01-24T07:22:43.588Z,88.30
2019-01-24T07:25:35.882Z,88.80
2019-01-24T07:28:04.305Z,88.50
2019-01-24T07:30:32.739Z,88.20
2019-01-24T07:33:01.166Z,88.10
2019-01-24T07:35:29.815Z,87.80
2019-01-24T07:37:58.494Z,87.30
2019-01-24T07:40:27.170Z,88.20
2019-01-24T07:42:55.641Z,88.40
2019-01-24T07:45:29.270Z,88.10
2019-01-24T07:47:57.703Z,88.20
2019-01-24T07:50:26.295Z,87.70
2019-01-24T07:52:55.056Z,87.30
2019-01-24T07:55:23.509Z,86.90
2019-01-24T07:57:51.941Z,86.80
2019-01-24T08:00:28.649Z,86.70
2019-01-24T08:02:57.381Z,86.50
2019-01-24T08:05:27.979Z,86.50
2019-01-24T08:07:56.416Z,87.20
2019-01-24T08:10:25.119Z,87.20
2019-01-24T08:12:53.595Z,86.90
2019-01-24T08:15:23.263Z,86.60
2019-01-24T08:17:51.788Z,86.60
2019-01-24T08:20:22.247Z,86.50
2019-01-24T08:22:51.034Z,85.70
2019-01-24T08:25:19.782Z,85.00
2019-01-24T08:27:48.571Z,85.20
2019-01-24T08:30:22.390Z,84.80
2019-01-24T08:32:51.230Z,84.40
2019-01-24T08:35:19.754Z,84.30
2019-01-24T08:37:48.389Z,84.10
2019-01-24T08:40:19.919Z,83.50
2019-01-24T08:42:48.481Z,83.10
2019-01-24T08:45:17.559Z,83.00
2019-01-24T08:47:45.983Z,82.70
2019-01-24T08:50:16.911Z,81.40
2019-01-24T08:52:45.769Z,81.00
2019-01-24T08:55:20.171Z,80.30
2019-01-24T08:57:48.593Z,80.60
2019-01-24T09:00:21.342Z,80.70
2019-01-24T09:02:50.814Z,79.50
2019-01-24T09:05:20.002Z,78.60
2019-01-24T09:07:48.494Z,78.60
2019-01-24T09:10:31.370Z,77.40
2019-01-24T09:13:00.068Z,76.80
2019-01-24T09:15:29.316Z,76.30
2019-01-24T09:17:57.743Z,75.50
2019-01-24T09:20:26.188Z,74.50
2019-01-24T09:22:55.291Z,73.90
2019-01-24T09:25:24.334Z,73.60
2019-01-24T09:27:52.749Z,73.60
2019-01-24T09:30:26.646Z,74.50
2019-01-24T09:32:55.074Z,73.90
2019-01-24T09:35:23.646Z,73.40
2019-01-24T09:37:52.345Z,74.20
2019-01-24T09:40:22.162Z,73.90
2019-01-24T09:42:50.583Z,73.20
2019-01-24T09:45:24.336Z,73.10
2019-01-24T09:47:54.109Z,73.60
2019-01-24T09:50:26.504Z,74.60
2019-01-24T09:52:54.921Z,74.00
2019-01-24T09:55:23.365Z,73.40
2019-01-24T09:57:51.854Z,71.60
2019-01-24T10:00:31.382Z,70.30
2019-01-24T10:03:00.108Z,69.20
2019-01-24T10:05:28.956Z,69.40
2019-01-24T10:07:57.589Z,68.70
2019-01-24T10:10:28.006Z,68.00
2019-01-24T10:12:57.586Z,67.10
2019-01-24T10:15:26.523Z,65.90
2019-01-24T10:17:55.058Z,63.80
2019-01-24T10:20:26.012Z,64.80
2019-01-24T10:22:54.665Z,64.00
2019-01-24T10:25:28.555Z,63.70
2019-01-24T10:27:57.762Z,62.40
2019-01-24T10:30:26.589Z,62.20
2019-01-24T10:32:55.485Z,62.10
2019-01-24T10:35:24.061Z,62.10
2019-01-24T10:37:52.619Z,59.90
2019-01-24T10:40:40.381Z,59.70
2019-01-24T10:43:08.809Z,59.10
2019-01-24T10:45:37.254Z,58.00
2019-01-24T10:48:06.226Z,58.30
2019-01-24T10:50:35.303Z,58.20
2019-01-24T10:53:03.940Z,57.50
2019-01-24T10:55:32.375Z,58.90
2019-01-24T10:58:01.691Z,57.80
2019-01-24T11:00:38.135Z,57.20
2019-01-24T11:03:08.798Z,57.30
2019-01-24T11:05:37.318Z,56.30
2019-01-24T11:08:07.087Z,56.00
2019-01-24T11:10:35.907Z,56.70
2019-01-24T11:13:07.344Z,55.50
2019-01-24T11:15:35.807Z,55.40
2019-01-24T11:18:05.246Z,54.80
2019-01-24T11:20:33.682Z,54.00
2019-01-24T11:23:02.100Z,52.50
2019-01-24T11:25:30.782Z,51.40
2019-01-24T11:27:59.250Z,51.10
2019-01-24T11:30:31.377Z,50.00
2019-01-24T11:32:59.873Z,50.50
2019-01-24T11:35:30.841Z,49.30
2019-01-24T11:37:59.345Z,48.70
2019-01-24T11:40:28.095Z,48.40
2019-01-24T11:42:56.642Z,48.80
2019-01-24T11:45:33.403Z,48.30
2019-01-24T11:48:02.171Z,48.80
2019-01-24T11:50:30.851Z,48.10
2019-01-24T11:52:59.318Z,47.10
2019-01-24T11:55:28.122Z,46.30
2019-01-24T11:57:56.593Z,45.00
2019-01-24T12:00:28.701Z,44.60
2019-01-24T12:02:57.197Z,40.80
2019-01-24T12:05:25.682Z,36.00
2019-01-24T12:07:54.114Z,33.90
2019-01-24T12:10:27.182Z,33.40
2019-01-24T12:12:55.930Z,28.60
2019-01-24T12:15:31.766Z,24.30
2019-01-24T12:18:00.202Z,21.30
2019-01-24T12:20:28.689Z,17.60
2019-01-24T12:22:57.293Z,14.00
2019-01-24T12:25:25.751Z,12.60
2019-01-24T12:27:54.444Z,11.50
2019-01-24T12:30:28.293Z,9.40
2019-01-24T12:32:57.066Z,10.20
2019-01-24T12:35:25.486Z,11.80
2019-01-24T12:37:53.914Z,11.90
2019-01-24T12:40:22.332Z,13.20
2019-01-24T12:42:50.827Z,12.40
2019-01-24T12:45:28.179Z,13.40
2019-01-24T12:47:56.608Z,14.80
2019-01-24T12:50:25.316Z,16.70
2019-01-24T12:52:54.134Z,17.20
2019-01-24T12:55:22.557Z,18.50
2019-01-24T12:57:50.988Z,20.00
2019-01-24T13:00:24.483Z,21.20
2019-01-24T13:02:52.970Z,21.70
2019-01-24T13:05:21.675Z,23.30
2019-01-24T13:07:50.096Z,24.10
2019-01-24T13:10:24.518Z,24.50
2019-01-24T13:12:53.030Z,25.00
2019-01-24T13:15:27.310Z,25.50
2019-01-24T13:17:55.741Z,26.20
2019-01-24T13:20:24.393Z,27.00
2019-01-24T13:22:52.934Z,26.40
2019-01-24T13:25:26.533Z,26.10
2019-01-24T13:27:54.985Z,26.20
2019-01-24T13:30:28.953Z,26.30
2019-01-24T13:32:57.430Z,26.70
2019-01-24T13:35:26.137Z,27.20
2019-01-24T13:37:54.606Z,27.30
2019-01-24T13:40:25.844Z,27.10
2019-01-24T13:42:54.355Z,27.30
2019-01-24T13:45:28.326Z,28.20
2019-01-24T13:47:56.806Z,29.00
2019-01-24T13:50:25.414Z,29.60
2019-01-24T13:52:53.914Z,29.90
2019-01-24T13:55:22.345Z,30.00
2019-01-24T13:57:50.770Z,30.90
2019-01-24T14:00:30.629Z,31.40
2019-01-24T14:03:02.811Z,31.40
2019-01-24T14:05:31.247Z,31.80
2019-01-24T14:07:59.677Z,31.30
2019-01-24T14:10:28.117Z,31.80
2019-01-24T14:12:56.788Z,31.90
2019-01-24T14:15:25.261Z,32.10
2019-01-24T14:17:53.689Z,31.90
2019-01-24T14:20:22.358Z,32.10
2019-01-24T14:22:50.895Z,32.60
2019-01-24T14:25:20.934Z,32.60
2019-01-24T14:27:49.348Z,32.80
2019-01-24T14:30:28.681Z,32.50
2019-01-24T14:32:57.439Z,32.50
2019-01-24T14:35:25.910Z,32.80
2019-01-24T14:37:54.392Z,33.80
2019-01-24T14:40:22.961Z,33.90
2019-01-24T14:42:51.394Z,34.80
2019-01-24T14:45:24.682Z,34.80
2019-01-24T14:47:53.095Z,35.00
2019-01-24T14:50:29.806Z,35.30
2019-01-24T14:52:58.241Z,35.50
2019-01-24T14:55:26.665Z,35.90
2019-01-24T14:57:55.164Z,35.90
2019-01-24T15:00:35.230Z,35.90
2019-01-24T15:03:03.827Z,36.60
2019-01-24T15:05:32.271Z,36.40
2019-01-24T15:08:00.703Z,36.80
2019-01-24T15:10:29.582Z,36.80
2019-01-24T15:12:58.375Z,37.30
2019-01-24T15:15:26.814Z,38.10
2019-01-24T15:17:55.238Z,38.30
2019-01-24T15:20:23.754Z,38.50
2019-01-24T15:22:52.179Z,39.60
2019-01-24T15:25:22.558Z,40.20
2019-01-24T15:27:50.987Z,41.10
2019-01-24T15:30:24.422Z,41.70
2019-01-24T15:32:52.962Z,42.50
2019-01-24T15:35:21.788Z,43.10
2019-01-24T15:37:54.309Z,43.00
2019-01-24T15:40:36.140Z,43.80
2019-01-24T15:43:05.362Z,44.50
2019-01-24T15:45:33.875Z,44.90
2019-01-24T15:48:02.375Z,45.10
2019-01-24T15:50:30.840Z,45.50
2019-01-24T15:52:59.307Z,46.00
2019-01-24T15:55:27.989Z,46.80
2019-01-24T15:57:56.452Z,46.90
2019-01-24T16:00:32.822Z,46.90
2019-01-24T16:03:01.314Z,48.00
2019-01-24T16:05:29.882Z,48.50
2019-01-24T16:08:01.806Z,49.20
2019-01-24T16:10:28.466Z,49.80
2019-01-24T16:12:56.901Z,50.70
2019-01-24T16:15:33.621Z,51.70
2019-01-24T16:18:02.122Z,52.80
2019-01-24T16:20:30.976Z,53.80
2019-01-24T16:22:59.671Z,54.40
2019-01-24T16:25:31.065Z,55.50
2019-01-24T16:27:59.498Z,57.10
2019-01-24T16:30:30.444Z,58.10
2019-01-24T16:32:58.947Z,59.60
2019-01-24T16:35:27.923Z,61.30
2019-01-24T16:37:56.365Z,67.20
2019-01-24T16:40:26.827Z,73.40
2019-01-24T16:42:55.279Z,78.10
2019-01-24T16:45:25.534Z,82.60
2019-01-24T16:47:53.973Z,85.70
2019-01-24T16:50:25.047Z,89.00
2019-01-24T16:52:53.469Z,90.30
2019-01-24T16:55:22.097Z,91.00
2019-01-24T16:57:51.564Z,91.30
2019-01-24T17:00:35.393Z,91.50
2019-01-24T17:03:04.278Z,91.60
2019-01-24T17:05:32.693Z,91.70
2019-01-24T17:08:01.134Z,91.80
2019-01-24T17:10:30.073Z,92.20
2019-01-24T17:12:58.632Z,92.40
2019-01-24T17:15:27.436Z,92.50
2019-01-24T17:17:55.909Z,92.70
2019-01-24T17:20:26.926Z,92.70
2019-01-24T17:22:55.659Z,92.40
2019-01-24T17:25:26.063Z,92.70
2019-01-24T17:27:54.494Z,92.70
2019-01-24T17:30:25.430Z,92.90
2019-01-24T17:32:53.933Z,92.60
2019-01-24T17:35:22.651Z,92.80
2019-01-24T17:37:51.198Z,92.80
2019-01-24T17:40:22.634Z,92.80
2019-01-24T17:42:51.134Z,92.90
2019-01-24T17:45:19.627Z,93.40
2019-01-24T17:47:48.070Z,93.80
2019-01-24T17:50:17.524Z,93.90
2019-01-24T17:52:46.106Z,93.80
2019-01-24T17:55:20.662Z,93.80
2019-01-24T17:57:49.103Z,93.60
2019-01-24T18:00:20.374Z,93.70
2019-01-24T18:02:48.879Z,93.50
2019-01-24T18:05:17.546Z,93.50
2019-01-24T18:07:45.996Z,93.60
2019-01-24T18:10:20.561Z,94.10
2019-01-24T18:12:49.254Z,93.90
2019-01-24T18:15:20.319Z,93.60
2019-01-24T18:17:48.821Z,93.20
2019-01-24T18:20:20.327Z,92.80
2019-01-24T18:22:48.827Z,92.90
2019-01-24T18:25:17.247Z,92.70
2019-01-24T18:27:45.750Z,92.90
2019-01-24T18:30:39.129Z,93.20
2019-01-24T18:33:07.627Z,93.20
2019-01-24T18:35:36.050Z,93.40
2019-01-24T18:38:05.477Z,93.30
2019-01-24T18:40:34.238Z,93.40
2019-01-24T18:43:03.031Z,93.60
2019-01-24T18:45:37.663Z,93.30
2019-01-24T18:48:07.042Z,93.20
2019-01-24T18:50:35.783Z,93.00
2019-01-24T18:53:04.812Z,93.20
2019-01-24T18:55:33.280Z,93.10
2019-01-24T18:58:01.705Z,93.10
2019-01-24T19:00:34.670Z,93.20
2019-01-24T19:03:04.844Z,92.60
2019-01-24T19:06:22.366Z,92.80
2019-01-24T19:08:50.867Z,92.70
2019-01-24T19:11:19.301Z,92.30
2019-01-24T19:13:47.722Z,92.20
2019-01-24T19:16:16.133Z,92.00
2019-01-24T19:18:44.570Z,92.10
2019-01-24T19:21:12.999Z,92.50
2019-01-24T19:23:41.451Z,92.70
2019-01-24T19:26:09.901Z,92.10
2019-01-24T19:28:38.324Z,92.00
2019-01-24T19:31:06.814Z,92.10
2019-01-24T19:33:35.249Z,92.10
2019-01-24T19:36:03.953Z,92.30
2019-01-24T19:38:32.429Z,92.10
2019-01-24T19:41:00.849Z,91.90
2019-01-24T19:43:29.310Z,91.70
2019-01-24T19:45:57.728Z,91.80
2019-01-24T19:48:26.159Z,91.80
2019-01-24T19:50:54.598Z,92.10
2019-01-24T19:53:23.056Z,91.70
2019-01-24T19:55:51.696Z,91.80
2019-01-24T19:58:20.162Z,92.00
2019-01-24T20:00:48.595Z,92.20
2019-01-24T20:03:17.033Z,91.90
2019-01-24T20:05:45.520Z,92.40
2019-01-24T20:08:13.941Z,92.30
2019-01-24T20:10:42.400Z,92.20
2019-01-24T20:13:10.853Z,92.40
2019-01-24T20:15:39.395Z,92.30
2019-01-24T20:18:08.348Z,92.10
2019-01-24T20:20:37.677Z,91.90
2019-01-24T20:23:06.497Z,91.40
2019-01-24T20:25:34.971Z,91.10
2019-01-24T20:28:03.464Z,91.00
2019-01-24T20:30:33.760Z,91.20
2019-01-24T20:33:02.955Z,91.20
2019-01-24T20:35:43.644Z,91.30
2019-01-24T20:38:12.661Z,91.30
2019-01-24T20:40:41.335Z,91.20
2019-01-24T20:43:11.613Z,91.40
2019-01-24T20:45:40.197Z,91.30
2019-01-24T20:48:08.871Z,91.40
2019-01-24T20:50:37.341Z,91.40
2019-01-24T20:53:06.219Z,91.40
2019-01-24T20:55:34.888Z,91.60
2019-01-24T20:58:03.412Z,91.40
2019-01-24T21:00:31.835Z,91.60
2019-01-24T21:03:00.245Z,91.40
2019-01-24T21:05:28.742Z,91.10
2019-01-24T21:07:57.160Z,90.70
2019-01-24T21:10:30.041Z,90.50
2019-01-24T21:12:59.185Z,90.70
2019-01-24T21:15:27.824Z,90.80
2019-01-24T21:17:56.345Z,91.00
2019-01-24T21:20:30.171Z,91.40
2019-01-24T21:22:58.801Z,91.00
2019-01-24T21:25:27.366Z,90.80
2019-01-24T21:27:55.941Z,90.90
2019-01-24T21:30:33.331Z,91.10
2019-01-24T21:33:01.919Z,91.10
2019-01-24T21:35:30.416Z,91.10
2019-01-24T21:37:58.824Z,90.70
2019-01-24T21:40:27.356Z,90.50
2019-01-24T21:42:55.809Z,90.10
2019-01-24T21:45:32.690Z,90.10
2019-01-24T21:48:01.215Z,90.60
2019-01-24T21:50:31.577Z,90.60
2019-01-24T21:53:00.058Z,90.60
2019-01-24T21:55:28.558Z,90.50
2019-01-24T21:57:57.076Z,90.50
2019-01-24T22:00:28.609Z,90.60
2019-01-24T22:02:57.029Z,90.40
2019-01-24T22:05:25.684Z,90.40
2019-01-24T22:07:54.350Z,90.40
2019-01-24T22:10:24.780Z,90.50
2019-01-24T22:12:53.804Z,90.30
2019-01-24T22:15:27.305Z,90.30
2019-01-24T22:17:55.974Z,90.20
2019-01-24T22:20:24.615Z,90.50
2019-01-24T22:22:53.393Z,90.70
2019-01-24T22:25:27.520Z,90.70
2019-01-24T22:27:56.111Z,91.00
2019-01-24T22:30:38.207Z,90.90
2019-01-24T22:33:07.173Z,90.70
2019-01-24T22:35:35.588Z,90.60
2019-01-24T22:38:05.226Z,90.70
2019-01-24T22:40:33.675Z,90.80
2019-01-24T22:43:02.357Z,90.50
2019-01-24T22:45:30.809Z,90.70
2019-01-24T22:47:59.327Z,90.90
2019-01-24T22:50:27.984Z,90.70
2019-01-24T22:52:56.522Z,90.40
2019-01-24T22:55:24.951Z,90.60
2019-01-24T22:57:53.663Z,90.70
2019-01-24T23:00:38.913Z,91.00
2019-01-24T23:03:07.411Z,91.10
2019-01-24T23:05:35.826Z,90.70
2019-01-24T23:08:04.753Z,91.00
2019-01-24T23:10:33.166Z,91.20
2019-01-24T23:13:01.972Z,91.30
2019-01-24T23:15:30.377Z,91.30
2019-01-24T23:17:59.076Z,91.10
2019-01-24T23:20:27.519Z,91.00
2019-01-24T23:22:56.237Z,91.60
2019-01-24T23:25:24.697Z,91.30
2019-01-24T23:27:53.377Z,91.40
2019-01-24T23:30:21.824Z,91.30
2019-01-24T23:32:50.261Z,90.90
2019-01-24T23:35:18.677Z,91.20
2019-01-24T23:37:52.323Z,91.30
2019-01-24T23:40:17.318Z,91.20
2019-01-24T23:42:45.989Z,91.30
2019-01-24T23:45:14.406Z,90.90
2019-01-24T23:47:43.084Z,90.80
2019-01-24T23:50:11.550Z,90.80
2019-01-24T23:52:40.003Z,90.50
2019-01-24T23:55:08.549Z,90.60
2019-01-24T23:57:37.049Z,90.60
